Time;durP1;ratioP1;P1;durP2;ratioP2;P2;SDS_P1;SDS_P2;PMS_P1;PMS_P2;Temp;Humidity;BMP_temperature;BMP_pressure;BME280_temperature;BME280_humidity;BME280_pressure;Samples;Min_cycle;Max_cycle;Signal;HPM_P1;HPM_P2
2021/07/04 00:00:01;;;;;;;10.32;6.32;;;;;;;;;;6210194;23;20685;-90
2021/07/04 00:03:06;;;;;;;14.95;6.03;;;;;;;;;;6210736;23;20212;-90
2021/07/04 00:06:13;;;;;;;15.15;6.18;;;;;;;;;;6208177;23;20179;-89
2021/07/04 00:09:18;;;;;;;12.93;5.95;;;;;;;;;;6209800;23;20170;-89
2021/07/04 00:12:23;;;;;;;10.80;6.30;;;;;;;;;;6208922;23;20175;-90
2021/07/04 00:15:29;;;;;;;12.02;6.57;;;;;;;;;;6209702;23;20171;-89
2021/07/04 00:18:35;;;;;;;9.63;5.78;;;;;;;;;;6210226;23;20171;-89
2021/07/04 00:21:42;;;;;;;13.57;6.32;;;;;;;;;;6208390;23;20274;-90
2021/07/04 00:24:47;;;;;;;12.15;6.65;;;;;;;;;;6209420;23;20224;-88
2021/07/04 00:27:55;;;;;;;11.32;6.43;;;;;;;;;;6208715;23;20228;-90
2021/07/04 00:31:01;;;;;;;11.77;6.25;;;;;;;;;;6209596;23;20188;-89
2021/07/04 00:34:06;;;;;;;12.63;6.72;;;;;;;;;;6213232;23;20678;-88
2021/07/04 00:37:13;;;;;;;11.43;6.25;;;;;;;;;;6211434;23;20179;-87
2021/07/04 00:40:21;;;;;;;13.35;6.65;;;;;;;;;;6209909;22;20195;-89
2021/07/04 00:43:30;;;;;;;17.13;6.72;;;;;;;;;;6208936;23;20215;-89
2021/07/04 00:46:35;;;;;;;14.88;6.65;;;;;;;;;;6210885;23;20294;-86
2021/07/04 00:49:42;;;;;;;10.20;5.90;;;;;;;;;;6212518;23;20171;-88
2021/07/04 00:52:49;;;;;;;15.68;6.70;;;;;;;;;;6211465;23;20249;-89
2021/07/04 00:55:54;;;;;;;12.60;6.47;;;;;;;;;;6210929;23;20167;-88
2021/07/04 00:59:04;;;;;;;12.15;6.60;;;;;;;;;;6209357;23;20553;-89
2021/07/04 01:02:09;;;;;;;11.07;6.40;;;;;;;;;;6211298;23;20186;-89
2021/07/04 01:05:16;;;;;;;12.32;6.53;;;;;;;;;;6210692;22;20944;-87
2021/07/04 01:08:23;;;;;;;13.90;6.65;;;;;;;;;;6211267;23;20175;-87
2021/07/04 01:11:28;;;;;;;10.73;6.55;;;;;;;;;;6211350;23;20213;-88
2021/07/04 01:14:34;;;;;;;11.80;6.30;;;;;;;;;;6209424;23;20170;-88
2021/07/04 01:17:39;;;;;;;11.85;6.55;;;;;;;;;;6211316;23;20171;-89
2021/07/04 01:20:46;;;;;;;12.27;5.85;;;;;;;;;;6210224;23;20657;-88
2021/07/04 01:23:54;;;;;;;14.80;6.70;;;;;;;;;;6211647;23;20168;-88
2021/07/04 01:27:02;;;;;;;14.48;6.75;;;;;;;;;;6211781;23;20170;-89
2021/07/04 01:30:09;;;;;;;13.88;7.40;;;;;;;;;;6210664;22;20171;-89
2021/07/04 01:33:17;;;;;;;10.88;6.63;;;;;;;;;;6211151;23;20171;-88
2021/07/04 01:36:23;;;;;;;14.18;6.55;;;;;;;;;;6211807;23;20171;-89
2021/07/04 01:39:31;;;;;;;9.40;6.18;;;;;;;;;;6210566;23;20218;-88
2021/07/04 01:42:42;;;;;;;11.95;7.18;;;;;;;;;;6211533;23;20170;-89
2021/07/04 01:45:48;;;;;;;13.18;6.97;;;;;;;;;;6212097;23;20215;-89
2021/07/04 01:48:54;;;;;;;11.27;6.97;;;;;;;;;;6212161;23;20170;-89
2021/07/04 01:52:01;;;;;;;12.68;6.72;;;;;;;;;;6212212;23;20156;-87
2021/07/04 01:55:15;;;;;;;11.57;7.00;;;;;;;;;;6211706;23;20239;-89
2021/07/04 01:58:22;;;;;;;15.05;7.53;;;;;;;;;;6211461;23;20191;-89
2021/07/04 02:01:37;;;;;;;14.63;7.30;;;;;;;;;;6212024;23;20206;-89
2021/07/04 02:04:43;;;;;;;15.10;6.65;;;;;;;;;;6211488;23;20170;-88
2021/07/04 02:08:01;;;;;;;13.65;6.72;;;;;;;;;;6209516;23;20167;-88
2021/07/04 02:11:10;;;;;;;13.80;6.60;;;;;;;;;;6210741;23;20216;-89
2021/07/04 02:14:22;;;;;;;11.95;6.90;;;;;;;;;;6210117;23;20171;-90
2021/07/04 02:17:41;;;;;;;11.23;6.18;;;;;;;;;;6211145;23;20172;-91
2021/07/04 02:21:19;;;;;;;9.50;6.10;;;;;;;;;;6229330;23;20595;-88
2021/07/04 02:24:50;;;;;;;10.98;6.63;;;;;;;;;;6228860;23;20169;-90
2021/07/04 02:28:12;;;;;;;11.60;7.22;;;;;;;;;;6211389;23;20170;-90
2021/07/04 02:31:18;;;;;;;13.60;6.82;;;;;;;;;;6209838;23;20175;-89
2021/07/04 02:34:24;;;;;;;12.25;6.78;;;;;;;;;;6210098;23;20179;-90
2021/07/04 02:37:34;;;;;;;10.60;6.43;;;;;;;;;;6209862;23;20175;-89
2021/07/04 02:40:48;;;;;;;11.68;6.60;;;;;;;;;;6209561;23;20190;-91
2021/07/04 02:43:56;;;;;;;12.13;7.22;;;;;;;;;;6210714;23;20166;-90
2021/07/04 02:47:02;;;;;;;25.98;7.90;;;;;;;;;;6209616;23;20163;-89
2021/07/04 02:50:09;;;;;;;18.10;7.07;;;;;;;;;;6208503;23;20151;-90
2021/07/04 02:53:15;;;;;;;13.05;7.30;;;;;;;;;;6208319;23;20512;-89
2021/07/04 02:56:24;;;;;;;12.93;7.10;;;;;;;;;;6209393;23;20167;-90
2021/07/04 02:59:31;;;;;;;11.00;6.85;;;;;;;;;;6210199;22;20167;-89
2021/07/04 03:02:36;;;;;;;12.77;7.30;;;;;;;;;;6209994;23;20849;-89
2021/07/04 03:05:42;;;;;;;13.40;6.97;;;;;;;;;;6209163;23;20167;-89
2021/07/04 03:08:48;;;;;;;13.25;7.35;;;;;;;;;;6208280;22;20179;-89
2021/07/04 03:11:57;;;;;;;16.20;7.63;;;;;;;;;;6211349;23;20182;-89
2021/07/04 03:15:05;;;;;;;11.95;6.65;;;;;;;;;;6210829;23;20179;-89
2021/07/04 03:18:10;;;;;;;14.68;7.20;;;;;;;;;;6210754;23;20171;-90
2021/07/04 03:21:19;;;;;;;12.27;7.50;;;;;;;;;;6208788;22;20249;-89
2021/07/04 03:24:26;;;;;;;15.18;7.85;;;;;;;;;;6209254;23;20171;-90
2021/07/04 03:27:32;;;;;;;14.25;7.53;;;;;;;;;;6208327;23;20175;-90
2021/07/04 03:30:40;;;;;;;11.50;7.50;;;;;;;;;;6211298;23;20171;-89
2021/07/04 03:33:46;;;;;;;13.05;7.43;;;;;;;;;;6210557;23;20162;-90
2021/07/04 03:36:52;;;;;;;10.55;7.22;;;;;;;;;;6209242;23;20242;-90
2021/07/04 03:39:57;;;;;;;12.57;7.07;;;;;;;;;;6209833;23;20167;-90
2021/07/04 03:43:03;;;;;;;13.63;7.28;;;;;;;;;;6210001;23;20167;-90
2021/07/04 03:46:16;;;;;;;14.68;7.50;;;;;;;;;;6212346;23;20210;-89
2021/07/04 03:49:27;;;;;;;16.20;7.22;;;;;;;;;;6212032;23;20166;-88
2021/07/04 03:52:43;;;;;;;13.40;7.13;;;;;;;;;;6212166;23;20224;-90
2021/07/04 03:55:53;;;;;;;12.90;7.55;;;;;;;;;;6213818;22;20175;-88
2021/07/04 03:59:01;;;;;;;15.07;7.53;;;;;;;;;;6213313;23;20175;-89
2021/07/04 04:02:10;;;;;;;18.58;7.22;;;;;;;;;;6212217;23;20669;-89
2021/07/04 04:05:15;;;;;;;12.10;6.47;;;;;;;;;;6212538;23;20496;-89
2021/07/04 04:08:26;;;;;;;13.60;7.47;;;;;;;;;;6211054;23;20171;-89
2021/07/04 04:11:34;;;;;;;13.95;7.15;;;;;;;;;;6212488;23;20278;-88
2021/07/04 04:14:47;;;;;;;11.63;6.97;;;;;;;;;;6213646;23;20623;-89
2021/07/04 04:17:57;;;;;;;18.75;7.60;;;;;;;;;;6213373;23;20175;-88
2021/07/04 04:21:02;;;;;;;14.55;7.18;;;;;;;;;;6213055;23;20238;-88
2021/07/04 04:24:08;;;;;;;15.73;8.05;;;;;;;;;;6211727;23;20236;-89
2021/07/04 04:27:13;;;;;;;12.43;7.22;;;;;;;;;;6212684;22;20621;-88
2021/07/04 04:30:19;;;;;;;14.85;7.35;;;;;;;;;;6210673;23;20190;-89
2021/07/04 04:33:28;;;;;;;13.13;7.03;;;;;;;;;;6211437;23;20163;-89
2021/07/04 04:36:35;;;;;;;13.80;7.78;;;;;;;;;;6210541;23;20183;-88
2021/07/04 04:39:41;;;;;;;14.40;6.97;;;;;;;;;;6229200;23;20271;-90
2021/07/04 04:42:47;;;;;;;17.10;6.80;;;;;;;;;;6209736;23;20167;-89
2021/07/04 04:45:54;;;;;;;12.18;6.70;;;;;;;;;;6210081;23;20178;-89
2021/07/04 04:49:02;;;;;;;10.55;6.90;;;;;;;;;;6211746;22;20203;-90
2021/07/04 04:52:07;;;;;;;10.60;6.93;;;;;;;;;;6212273;23;20170;-90
2021/07/04 04:55:13;;;;;;;14.70;7.10;;;;;;;;;;6210641;23;20626;-89
2021/07/04 04:58:20;;;;;;;16.13;7.40;;;;;;;;;;6211375;22;20629;-89
2021/07/04 05:01:27;;;;;;;13.38;7.35;;;;;;;;;;6212705;22;20261;-88
2021/07/04 05:04:34;;;;;;;11.40;6.80;;;;;;;;;;6210471;23;20175;-90
2021/07/04 05:07:39;;;;;;;13.02;6.43;;;;;;;;;;6212424;23;20163;-89
2021/07/04 05:10:44;;;;;;;11.00;6.60;;;;;;;;;;6209608;23;20171;-89
2021/07/04 05:13:49;;;;;;;14.93;7.15;;;;;;;;;;6209130;22;20167;-88
2021/07/04 05:16:55;;;;;;;10.88;6.45;;;;;;;;;;6209871;23;20247;-90
2021/07/04 05:20:06;;;;;;;11.82;6.68;;;;;;;;;;6229605;23;20183;-89
2021/07/04 05:23:11;;;;;;;12.20;7.00;;;;;;;;;;6210777;23;20167;-88
2021/07/04 05:26:19;;;;;;;12.30;7.07;;;;;;;;;;6229414;22;20163;-88
2021/07/04 05:29:27;;;;;;;12.55;7.10;;;;;;;;;;6209920;23;20152;-90
2021/07/04 05:32:32;;;;;;;11.07;6.55;;;;;;;;;;6212327;22;20233;-90
2021/07/04 05:35:39;;;;;;;14.73;7.53;;;;;;;;;;6211072;23;20171;-90
2021/07/04 05:38:45;;;;;;;12.23;7.45;;;;;;;;;;6211568;23;20170;-89
2021/07/04 05:41:50;;;;;;;15.00;6.88;;;;;;;;;;6209541;23;20273;-88
2021/07/04 05:44:55;;;;;;;12.43;7.22;;;;;;;;;;6209178;23;20370;-89
2021/07/04 05:48:00;;;;;;;12.05;7.18;;;;;;;;;;6211444;23;20232;-88
2021/07/04 05:51:08;;;;;;;15.25;7.38;;;;;;;;;;6210481;23;20178;-88
2021/07/04 05:54:13;;;;;;;18.85;7.30;;;;;;;;;;6211905;23;20175;-89
2021/07/04 05:57:18;;;;;;;17.70;7.80;;;;;;;;;;6209520;23;20492;-89
2021/07/04 06:00:27;;;;;;;10.75;6.95;;;;;;;;;;6208729;22;20179;-88
2021/07/04 06:03:33;;;;;;;13.75;7.68;;;;;;;;;;6211150;23;20203;-89
2021/07/04 06:06:40;;;;;;;14.38;8.00;;;;;;;;;;6210832;23;20167;-89
2021/07/04 06:09:46;;;;;;;20.15;8.07;;;;;;;;;;6211901;23;20167;-89
2021/07/04 06:12:55;;;;;;;12.63;7.60;;;;;;;;;;6212700;23;20167;-89
2021/07/04 06:16:00;;;;;;;12.00;7.78;;;;;;;;;;6209597;23;20206;-90
2021/07/04 06:19:05;;;;;;;17.85;8.02;;;;;;;;;;6210919;23;20163;-89
2021/07/04 06:22:12;;;;;;;13.75;7.88;;;;;;;;;;6212114;23;20198;-89
2021/07/04 06:25:17;;;;;;;15.88;7.82;;;;;;;;;;6212250;23;20219;-89
2021/07/04 06:28:22;;;;;;;16.52;8.05;;;;;;;;;;6212259;23;20167;-90
2021/07/04 06:31:28;;;;;;;10.77;7.05;;;;;;;;;;6213773;23;20206;-90
2021/07/04 06:34:34;;;;;;;12.55;7.13;;;;;;;;;;6211575;22;20172;-90
2021/07/04 06:37:41;;;;;;;15.02;7.55;;;;;;;;;;6212763;23;20167;-89
2021/07/04 06:40:46;;;;;;;14.27;7.30;;;;;;;;;;6210250;23;20170;-89
2021/07/04 06:43:51;;;;;;;13.25;8.30;;;;;;;;;;6211087;23;20478;-90
2021/07/04 06:46:56;;;;;;;13.20;7.72;;;;;;;;;;6211554;23;20171;-88
2021/07/04 06:50:02;;;;;;;19.00;7.75;;;;;;;;;;6210483;23;20163;-90
2021/07/04 06:53:09;;;;;;;12.27;8.13;;;;;;;;;;6212394;22;20167;-89
2021/07/04 06:56:14;;;;;;;13.35;8.35;;;;;;;;;;6213052;23;20175;-90
2021/07/04 06:59:25;;;;;;;18.75;8.02;;;;;;;;;;6212815;23;20179;-90
2021/07/04 07:02:31;;;;;;;12.30;7.78;;;;;;;;;;6195867;23;20311;-89
2021/07/04 07:05:37;;;;;;;15.15;8.38;;;;;;;;;;6213178;23;20187;-89
2021/07/04 07:08:43;;;;;;;14.82;8.60;;;;;;;;;;6216518;23;20158;-90
2021/07/04 07:11:48;;;;;;;15.80;9.00;;;;;;;;;;6211442;22;20174;-89
2021/07/04 07:14:57;;;;;;;11.63;7.50;;;;;;;;;;6212887;23;20166;-90
2021/07/04 07:18:03;;;;;;;16.63;8.50;;;;;;;;;;6213566;23;20167;-90
2021/07/04 07:21:08;;;;;;;11.93;7.90;;;;;;;;;;6213766;23;20238;-91
2021/07/04 07:24:16;;;;;;;13.82;8.07;;;;;;;;;;6232775;22;20168;-90
2021/07/04 07:27:25;;;;;;;17.00;8.32;;;;;;;;;;6213783;22;20510;-90
2021/07/04 07:30:33;;;;;;;15.05;7.80;;;;;;;;;;6214083;23;20171;-89
2021/07/04 07:33:40;;;;;;;14.23;7.85;;;;;;;;;;6214241;22;20158;-90
2021/07/04 07:36:47;;;;;;;10.40;6.72;;;;;;;;;;6213977;23;20219;-90
2021/07/04 07:39:59;;;;;;;13.82;7.63;;;;;;;;;;6214782;23;20160;-88
2021/07/04 07:43:06;;;;;;;11.10;7.03;;;;;;;;;;6214255;23;20239;-91
2021/07/04 07:46:12;;;;;;;13.48;7.68;;;;;;;;;;6211894;23;20170;-91
2021/07/04 07:49:18;;;;;;;10.15;7.15;;;;;;;;;;6213418;23;20199;-92
2021/07/04 07:52:26;;;;;;;13.75;8.13;;;;;;;;;;6213929;23;20171;-89
2021/07/04 07:55:33;;;;;;;12.73;7.80;;;;;;;;;;6214183;22;20159;-89
2021/07/04 07:58:44;;;;;;;15.05;7.72;;;;;;;;;;6214456;23;20222;-90
2021/07/04 08:01:49;;;;;;;13.10;7.60;;;;;;;;;;6213919;23;20517;-91
2021/07/04 08:04:54;;;;;;;12.95;7.45;;;;;;;;;;6217360;23;20147;-90
2021/07/04 08:07:59;;;;;;;15.18;7.40;;;;;;;;;;6214477;23;20156;-90
2021/07/04 08:11:13;;;;;;;12.35;7.78;;;;;;;;;;6216634;23;20155;-91
2021/07/04 08:14:18;;;;;;;12.68;7.40;;;;;;;;;;6214895;23;20170;-92
2021/07/04 08:17:28;;;;;;;11.80;7.40;;;;;;;;;;6214242;23;20203;-91
2021/07/04 08:20:33;;;;;;;10.95;7.72;;;;;;;;;;6212378;23;20166;-89
2021/07/04 08:23:40;;;;;;;10.60;7.00;;;;;;;;;;6211605;22;20179;-90
2021/07/04 08:26:49;;;;;;;10.73;7.25;;;;;;;;;;6213084;23;20148;-90
2021/07/04 08:29:54;;;;;;;12.88;7.40;;;;;;;;;;6211966;22;20461;-90
2021/07/04 08:33:02;;;;;;;10.40;7.38;;;;;;;;;;6212865;23;20240;-90
2021/07/04 08:36:07;;;;;;;11.63;7.30;;;;;;;;;;6211980;23;20218;-91
2021/07/04 08:39:12;;;;;;;10.38;7.60;;;;;;;;;;6213192;23;20175;-91
2021/07/04 08:42:20;;;;;;;12.93;7.72;;;;;;;;;;6211211;23;20273;-92
2021/07/04 08:45:27;;;;;;;12.23;6.93;;;;;;;;;;6212921;23;20167;-91
2021/07/04 08:48:38;;;;;;;9.65;6.63;;;;;;;;;;6213348;22;20167;-90
2021/07/04 08:51:43;;;;;;;11.60;6.93;;;;;;;;;;6213355;23;20195;-90
2021/07/04 08:54:48;;;;;;;8.82;5.90;;;;;;;;;;6211665;23;20163;-90
2021/07/04 08:57:57;;;;;;;8.45;5.35;;;;;;;;;;6211440;23;20170;-89
2021/07/04 09:01:08;;;;;;;8.77;4.93;;;;;;;;;;6212079;22;20186;-90
2021/07/04 09:04:15;;;;;;;9.63;5.20;;;;;;;;;;6212871;23;20696;-88
2021/07/04 09:07:26;;;;;;;8.73;5.63;;;;;;;;;;6213799;23;20183;-89
2021/07/04 09:10:34;;;;;;;6.40;4.63;;;;;;;;;;6212792;23;20615;-90
2021/07/04 09:13:43;;;;;;;10.27;6.40;;;;;;;;;;6212333;22;20278;-89
2021/07/04 09:16:49;;;;;;;9.50;5.65;;;;;;;;;;6212696;23;20242;-90
2021/07/04 09:19:57;;;;;;;11.30;6.38;;;;;;;;;;6213318;22;20156;-91
2021/07/04 09:23:03;;;;;;;13.13;6.30;;;;;;;;;;6231978;22;20198;-90
2021/07/04 09:26:08;;;;;;;9.55;6.05;;;;;;;;;;6212017;23;20167;-89
2021/07/04 09:29:15;;;;;;;8.65;5.70;;;;;;;;;;6213726;23;20174;-89
2021/07/04 09:32:24;;;;;;;10.18;5.43;;;;;;;;;;6213869;23;20681;-90
2021/07/04 09:35:30;;;;;;;9.30;6.18;;;;;;;;;;6213923;22;20159;-91
2021/07/04 09:38:36;;;;;;;8.65;6.05;;;;;;;;;;6230674;22;20182;-91
2021/07/04 09:42:02;;;;;;;8.80;5.55;;;;;;;;;;6211984;23;20171;-89
2021/07/04 09:45:09;;;;;;;8.55;5.57;;;;;;;;;;6212686;23;20618;-90
2021/07/04 09:48:16;;;;;;;8.52;5.53;;;;;;;;;;6212321;22;20180;-90
2021/07/04 09:51:22;;;;;;;9.95;5.60;;;;;;;;;;6210816;23;20163;-91
2021/07/04 09:54:27;;;;;;;9.15;5.45;;;;;;;;;;6211875;23;20170;-91
2021/07/04 09:57:53;;;;;;;9.15;5.25;;;;;;;;;;6212842;22;20166;-90
2021/07/04 10:01:00;;;;;;;6.47;4.68;;;;;;;;;;6213412;22;20194;-90
2021/07/04 10:04:07;;;;;;;7.57;5.10;;;;;;;;;;6212770;22;20183;-89
2021/07/04 10:07:16;;;;;;;9.60;5.00;;;;;;;;;;6212590;23;20167;-90
2021/07/04 10:10:25;;;;;;;8.45;4.60;;;;;;;;;;6213627;23;20167;-89
2021/07/04 10:13:31;;;;;;;8.13;4.43;;;;;;;;;;6212521;23;20167;-91
2021/07/04 10:16:42;;;;;;;7.82;4.57;;;;;;;;;;6214365;22;20197;-90
2021/07/04 10:19:49;;;;;;;5.90;4.28;;;;;;;;;;6233954;22;20155;-91
2021/07/04 10:22:55;;;;;;;8.40;4.70;;;;;;;;;;6212962;23;20229;-90
2021/07/04 10:26:01;;;;;;;7.15;4.70;;;;;;;;;;6212528;23;20162;-89
2021/07/04 10:29:07;;;;;;;9.60;4.68;;;;;;;;;;6209612;23;20169;-90
2021/07/04 10:32:17;;;;;;;6.40;4.70;;;;;;;;;;6210897;22;20155;-91
2021/07/04 10:35:23;;;;;;;10.30;5.72;;;;;;;;;;6212899;22;20162;-89
2021/07/04 10:38:39;;;;;;;6.57;4.72;;;;;;;;;;6212062;23;20147;-89
2021/07/04 10:41:53;;;;;;;5.32;4.28;;;;;;;;;;6210171;23;20675;-90
2021/07/04 10:44:58;;;;;;;7.32;4.47;;;;;;;;;;6208713;23;20623;-90
2021/07/04 10:48:21;;;;;;;7.40;4.90;;;;;;;;;;6210682;22;20159;-90
2021/07/04 10:51:27;;;;;;;6.13;4.65;;;;;;;;;;6212678;23;20587;-90
2021/07/04 10:54:50;;;;;;;5.63;4.00;;;;;;;;;;6211651;23;20170;-89
2021/07/04 10:57:56;;;;;;;5.97;4.50;;;;;;;;;;6212587;23;20159;-90
2021/07/04 11:01:04;;;;;;;6.55;4.40;;;;;;;;;;6214101;22;20183;-90
2021/07/04 11:04:26;;;;;;;6.88;4.68;;;;;;;;;;6214736;23;20179;-89
2021/07/04 11:07:46;;;;;;;6.72;3.80;;;;;;;;;;6212651;23;20174;-90
2021/07/04 11:11:00;;;;;;;4.40;3.40;;;;;;;;;;6212457;23;20168;-90
2021/07/04 11:14:09;;;;;;;5.53;3.72;;;;;;;;;;6211193;23;20194;-90
2021/07/04 11:20:35;;;;;;;5.97;4.00;;;;;;;;;;6213180;23;20175;-90
2021/07/04 11:23:40;;;;;;;5.38;3.90;;;;;;;;;;6212593;22;20206;-90
2021/07/04 11:27:08;;;;;;;6.50;3.90;;;;;;;;;;6213636;23;20167;-89
2021/07/04 11:30:25;;;;;;;5.90;3.97;;;;;;;;;;6213196;23;20488;-88
2021/07/04 11:33:33;;;;;;;6.22;3.80;;;;;;;;;;6214329;22;20237;-89
2021/07/04 11:36:39;;;;;;;5.43;3.72;;;;;;;;;;6215994;22;20151;-90
2021/07/04 11:39:56;;;;;;;8.55;3.88;;;;;;;;;;6217207;23;20175;-90
2021/07/04 11:43:14;;;;;;;6.38;3.92;;;;;;;;;;6216330;23;20195;-91
2021/07/04 11:46:21;;;;;;;6.40;3.97;;;;;;;;;;6232857;23;20171;-90
2021/07/04 11:49:28;;;;;;;6.82;3.75;;;;;;;;;;6212867;23;20245;-87
2021/07/04 11:52:39;;;;;;;5.88;3.60;;;;;;;;;;6213681;23;20268;-91
2021/07/04 11:56:00;;;;;;;6.03;3.83;;;;;;;;;;6213267;23;20245;-90
2021/07/04 11:59:15;;;;;;;4.38;3.55;;;;;;;;;;6211788;23;20167;-90
2021/07/04 12:02:20;;;;;;;6.13;3.72;;;;;;;;;;6212452;22;20248;-91
2021/07/04 12:05:25;;;;;;;8.93;3.83;;;;;;;;;;6213347;22;20178;-91
2021/07/04 12:08:30;;;;;;;4.53;3.75;;;;;;;;;;6198428;23;20175;-90
2021/07/04 12:11:45;;;;;;;4.22;3.67;;;;;;;;;;6214369;23;20197;-91
2021/07/04 12:14:53;;;;;;;6.90;4.22;;;;;;;;;;6214845;23;20166;-91
2021/07/04 12:18:18;;;;;;;8.23;3.30;;;;;;;;;;6215083;22;20186;-91
2021/07/04 16:33:29;;;;;;;6.57;2.97;;;;;;;;;;6224996;22;20260;-88
2021/07/04 16:36:36;;;;;;;5.43;3.30;;;;;;;;;;6211720;23;20879;-90
2021/07/04 16:39:51;;;;;;;4.55;3.28;;;;;;;;;;6211050;23;20175;-89
2021/07/04 16:42:57;;;;;;;6.13;3.40;;;;;;;;;;6216255;23;20250;-89
2021/07/04 16:46:04;;;;;;;4.72;3.00;;;;;;;;;;6214199;23;20210;-90
2021/07/04 16:49:11;;;;;;;4.80;2.90;;;;;;;;;;6212771;23;20207;-89
2021/07/04 16:52:16;;;;;;;5.38;3.08;;;;;;;;;;6210725;23;20253;-89
2021/07/04 16:55:21;;;;;;;4.85;3.13;;;;;;;;;;6210930;23;20266;-90
2021/07/04 16:58:28;;;;;;;4.90;2.90;;;;;;;;;;6215934;23;20174;-89
2021/07/04 17:01:37;;;;;;;6.57;3.03;;;;;;;;;;6198000;23;20190;-89
2021/07/04 17:04:56;;;;;;;3.80;2.88;;;;;;;;;;6212721;23;20214;-89
2021/07/04 17:08:01;;;;;;;5.18;2.80;;;;;;;;;;6211497;23;20171;-89
2021/07/04 17:11:12;;;;;;;5.30;2.70;;;;;;;;;;6229424;23;20159;-89
2021/07/04 17:14:18;;;;;;;4.97;2.85;;;;;;;;;;6210160;23;20606;-89
2021/07/04 17:17:23;;;;;;;4.45;2.97;;;;;;;;;;6210280;23;20163;-89
2021/07/04 17:20:30;;;;;;;3.42;2.63;;;;;;;;;;6211520;23;20159;-89
2021/07/04 17:23:39;;;;;;;6.38;3.30;;;;;;;;;;6212997;23;20203;-90
2021/07/04 17:26:44;;;;;;;5.55;3.38;;;;;;;;;;6228956;22;20168;-89
2021/07/04 17:29:56;;;;;;;7.78;2.85;;;;;;;;;;6210222;23;20715;-89
2021/07/04 17:33:01;;;;;;;4.88;3.40;;;;;;;;;;6210156;23;20291;-89
2021/07/04 17:36:08;;;;;;;6.15;3.40;;;;;;;;;;6212083;23;20166;-88
2021/07/04 17:39:14;;;;;;;6.15;3.38;;;;;;;;;;6209061;23;20625;-89
2021/07/04 17:42:19;;;;;;;6.95;3.35;;;;;;;;;;6209511;23;20695;-88
2021/07/04 17:45:26;;;;;;;6.25;3.30;;;;;;;;;;6209620;23;20492;-89
2021/07/04 17:48:31;;;;;;;6.80;3.20;;;;;;;;;;6209483;23;20226;-87
2021/07/04 17:51:38;;;;;;;6.55;3.40;;;;;;;;;;6208304;23;20166;-89
2021/07/04 17:54:43;;;;;;;5.35;3.45;;;;;;;;;;6208032;23;20162;-88
2021/07/04 17:57:49;;;;;;;9.27;3.00;;;;;;;;;;6209662;23;20208;-88
2021/07/04 18:00:56;;;;;;;4.80;3.00;;;;;;;;;;6207514;23;20214;-88
2021/07/04 18:04:01;;;;;;;4.18;3.05;;;;;;;;;;6208839;23;20196;-87
2021/07/04 18:07:08;;;;;;;5.40;3.33;;;;;;;;;;6210478;23;20259;-87
2021/07/04 18:10:14;;;;;;;6.65;3.33;;;;;;;;;;6207824;23;20623;-88
2021/07/04 18:13:19;;;;;;;4.65;3.10;;;;;;;;;;6208346;23;20171;-88
2021/07/04 18:16:26;;;;;;;9.10;2.97;;;;;;;;;;6208017;23;20170;-89
2021/07/04 18:19:31;;;;;;;7.00;3.08;;;;;;;;;;6206449;23;20207;-89
2021/07/04 18:22:37;;;;;;;6.75;3.28;;;;;;;;;;6206037;23;20220;-89
2021/07/04 18:25:43;;;;;;;6.53;3.22;;;;;;;;;;6207485;23;20175;-89
2021/07/04 18:28:48;;;;;;;4.05;2.95;;;;;;;;;;6207768;23;20167;-89
2021/07/04 18:31:54;;;;;;;6.90;3.70;;;;;;;;;;6206898;23;20195;-89
2021/07/04 18:34:59;;;;;;;8.93;3.75;;;;;;;;;;6206670;23;20167;-89
2021/07/04 18:38:05;;;;;;;5.20;3.00;;;;;;;;;;6206810;23;20238;-89
2021/07/04 18:41:11;;;;;;;14.77;3.03;;;;;;;;;;6206384;23;20242;-89
2021/07/04 18:44:32;;;;;;;4.93;3.40;;;;;;;;;;6206296;23;20310;-89
2021/07/04 18:47:43;;;;;;;5.70;3.53;;;;;;;;;;6207069;23;20191;-90
2021/07/04 18:50:48;;;;;;;6.93;3.55;;;;;;;;;;6207596;23;20294;-89
2021/07/04 18:53:55;;;;;;;6.32;3.80;;;;;;;;;;6209096;23;20209;-88
2021/07/04 18:57:02;;;;;;;8.68;3.40;;;;;;;;;;6208736;23;20220;-89
2021/07/04 19:00:09;;;;;;;6.43;4.00;;;;;;;;;;6209312;23;20219;-89
2021/07/04 19:03:16;;;;;;;7.65;3.47;;;;;;;;;;6192493;23;20171;-88
2021/07/04 19:06:21;;;;;;;7.00;3.25;;;;;;;;;;6206805;23;20488;-88
2021/07/04 19:09:31;;;;;;;7.68;4.03;;;;;;;;;;6206860;23;20507;-88
2021/07/04 19:12:35;;;;;;;6.57;3.45;;;;;;;;;;6208350;23;20211;-89
2021/07/04 19:15:43;;;;;;;8.40;3.70;;;;;;;;;;6210419;23;20621;-89
2021/07/04 19:18:48;;;;;;;8.48;3.97;;;;;;;;;;6210445;23;20609;-89
2021/07/04 19:21:57;;;;;;;8.25;4.18;;;;;;;;;;6212002;23;20179;-89
2021/07/04 19:25:06;;;;;;;9.90;3.95;;;;;;;;;;6210164;23;20254;-88
2021/07/04 19:28:16;;;;;;;7.70;3.53;;;;;;;;;;6210532;23;20174;-89
2021/07/04 19:31:21;;;;;;;7.20;3.88;;;;;;;;;;6209972;23;20226;-88
2021/07/04 19:34:26;;;;;;;8.02;4.13;;;;;;;;;;6180016;23;20168;-90
2021/07/04 19:37:36;;;;;;;5.90;3.75;;;;;;;;;;6179396;23;20183;-89
2021/07/04 19:40:43;;;;;;;6.72;4.00;;;;;;;;;;6179768;23;20539;-90
2021/07/04 19:43:50;;;;;;;27.05;12.05;;;;;;;;;;6180035;23;20710;-90
2021/07/04 19:46:56;;;;;;;8.13;4.00;;;;;;;;;;6178722;23;20288;-89
2021/07/04 19:50:01;;;;;;;10.43;4.30;;;;;;;;;;6182102;23;20514;-87
2021/07/04 19:53:06;;;;;;;7.72;4.22;;;;;;;;;;6180903;23;20164;-87
2021/07/04 19:56:13;;;;;;;8.70;4.18;;;;;;;;;;6180040;23;20167;-89
2021/07/04 19:59:18;;;;;;;8.07;4.00;;;;;;;;;;6181031;23;20243;-88
2021/07/04 20:02:23;;;;;;;4.70;3.45;;;;;;;;;;6178616;23;20171;-88
2021/07/04 20:05:29;;;;;;;3.00;2.05;;;;;;;;;;6181074;23;20200;-89
2021/07/04 20:08:34;;;;;;;2.30;1.67;;;;;;;;;;6181177;23;20176;-89
2021/07/04 20:11:44;;;;;;;7.40;2.10;;;;;;;;;;6181668;23;20172;-88
2021/07/04 20:14:49;;;;;;;6.15;2.45;;;;;;;;;;6184152;23;20171;-88
2021/07/04 20:17:55;;;;;;;3.22;1.60;;;;;;;;;;6181221;23;20627;-88
2021/07/04 20:21:02;;;;;;;4.97;1.38;;;;;;;;;;6181394;23;20171;-89
2021/07/04 20:24:08;;;;;;;3.05;1.38;;;;;;;;;;6181082;23;20535;-87
2021/07/04 20:27:16;;;;;;;4.38;1.70;;;;;;;;;;6180713;23;20187;-87
2021/07/04 20:30:24;;;;;;;5.85;1.75;;;;;;;;;;6182197;23;20197;-90
2021/07/04 20:33:30;;;;;;;3.80;2.17;;;;;;;;;;6209794;23;20234;-88
2021/07/04 20:36:36;;;;;;;1.55;1.10;;;;;;;;;;6211200;23;20167;-87
2021/07/04 20:39:41;;;;;;;3.38;1.38;;;;;;;;;;6212657;23;20210;-88
2021/07/04 20:42:48;;;;;;;5.35;1.45;;;;;;;;;;6214317;23;20171;-87
2021/07/04 20:45:53;;;;;;;3.80;1.55;;;;;;;;;;6212189;23;20171;-88
2021/07/04 20:48:59;;;;;;;4.25;1.45;;;;;;;;;;6211076;23;20174;-88
2021/07/04 20:52:04;;;;;;;3.90;1.65;;;;;;;;;;6210387;23;20179;-87
2021/07/04 20:55:11;;;;;;;5.43;1.70;;;;;;;;;;6210372;23;20180;-88
2021/07/04 20:58:18;;;;;;;4.75;1.65;;;;;;;;;;6210945;23;20170;-88
2021/07/04 21:01:23;;;;;;;5.25;1.88;;;;;;;;;;6210855;23;20196;-88
2021/07/04 21:04:29;;;;;;;3.47;1.65;;;;;;;;;;6210015;23;20199;-89
2021/07/04 21:07:34;;;;;;;4.38;1.70;;;;;;;;;;6210320;23;20222;-87
2021/07/04 21:10:39;;;;;;;3.13;1.42;;;;;;;;;;6209907;23;20638;-88
2021/07/04 21:13:46;;;;;;;3.80;1.50;;;;;;;;;;6211123;23;20198;-87
2021/07/04 21:16:51;;;;;;;3.58;1.77;;;;;;;;;;6210801;23;20171;-87
2021/07/04 21:19:56;;;;;;;3.03;1.65;;;;;;;;;;6211652;23;20167;-88
2021/07/04 21:23:02;;;;;;;2.17;1.40;;;;;;;;;;6211452;23;20201;-87
2021/07/04 21:26:08;;;;;;;7.35;1.98;;;;;;;;;;6211370;23;20199;-88
2021/07/04 21:29:15;;;;;;;5.68;1.80;;;;;;;;;;6212782;23;20171;-87
2021/07/04 21:32:21;;;;;;;2.63;1.60;;;;;;;;;;6211904;23;20194;-89
2021/07/04 21:35:26;;;;;;;29.85;17.60;;;;;;;;;;6209500;23;20681;-88
2021/07/04 21:38:31;;;;;;;5.75;2.53;;;;;;;;;;6227833;23;20183;-89
2021/07/04 21:41:37;;;;;;;2.92;1.75;;;;;;;;;;6210834;23;20174;-89
2021/07/04 21:44:44;;;;;;;3.72;1.85;;;;;;;;;;6210295;23;20259;-87
2021/07/04 21:47:52;;;;;;;3.17;1.88;;;;;;;;;;6210918;23;20247;-87
2021/07/04 21:50:57;;;;;;;6.85;2.30;;;;;;;;;;6209978;23;20166;-88
2021/07/04 21:54:03;;;;;;;3.15;1.63;;;;;;;;;;6208959;23;20194;-88
2021/07/04 21:57:08;;;;;;;2.70;1.80;;;;;;;;;;6209728;23;20183;-87
2021/07/04 22:00:29;;;;;;;6.07;2.50;;;;;;;;;;6210484;23;20162;-88
2021/07/04 22:03:39;;;;;;;4.10;2.30;;;;;;;;;;6210643;23;20162;-88
2021/07/04 22:06:48;;;;;;;3.88;2.38;;;;;;;;;;6209389;23;20167;-87
2021/07/04 22:09:53;;;;;;;5.05;2.10;;;;;;;;;;6209197;23;20283;-88
2021/07/04 22:12:58;;;;;;;3.53;1.77;;;;;;;;;;6209868;23;20171;-88
2021/07/04 22:16:08;;;;;;;3.45;1.88;;;;;;;;;;6208191;23;20167;-87
2021/07/04 22:19:14;;;;;;;4.18;2.00;;;;;;;;;;6209074;23;20168;-85
2021/07/04 22:22:21;;;;;;;3.90;2.38;;;;;;;;;;6208765;23;20175;-88
2021/07/04 22:25:28;;;;;;;3.92;2.35;;;;;;;;;;6209272;23;20195;-88
2021/07/04 22:28:34;;;;;;;5.28;1.83;;;;;;;;;;6183070;23;20212;-88
2021/07/04 22:31:41;;;;;;;3.35;2.00;;;;;;;;;;6208415;23;20185;-88
2021/07/04 22:34:47;;;;;;;4.65;1.88;;;;;;;;;;6208071;23;20220;-86
2021/07/04 22:37:55;;;;;;;5.82;2.00;;;;;;;;;;6209191;23;20182;-87
2021/07/04 22:41:00;;;;;;;7.25;2.10;;;;;;;;;;6208528;23;20195;-89
2021/07/04 22:44:08;;;;;;;3.15;1.70;;;;;;;;;;6208088;23;20171;-89
2021/07/04 22:47:14;;;;;;;3.28;1.70;;;;;;;;;;6209538;23;20239;-88
2021/07/04 22:50:23;;;;;;;2.97;1.70;;;;;;;;;;6208887;23;20171;-87